Time;durP1;ratioP1;P1;durP2;ratioP2;P2;SDS_P1;SDS_P2;PMS_P1;PMS_P2;Temp;Humidity;BMP_temperature;BMP_pressure;BME280_temperature;BME280_humidity;BME280_pressure;Samples;Min_cycle;Max_cycle;Signal;HPM_P1;HPM_P2
2021/12/25 00:01:49;;;;;;;;;;;7.10;99.90;;;;;;4966118;28;20164;-72
2021/12/25 00:04:17;;;;;;;;;;;7.00;99.90;;;;;;4966249;28;21063;-72
2021/12/25 00:06:44;;;;;;;;;;;6.90;99.90;;;;;;4966129;28;20079;-73
2021/12/25 00:09:11;;;;;;;;;;;6.80;99.90;;;;;;4966337;28;21006;-73
2021/12/25 00:11:39;;;;;;;;;;;6.70;99.90;;;;;;4965988;28;21119;-72
2021/12/25 00:14:11;;;;;;;;;;;6.70;99.90;;;;;;4966407;28;20069;-74
2021/12/25 00:16:40;;;;;;;;;;;6.60;99.90;;;;;;4965628;28;20058;-72
2021/12/25 00:19:07;;;;;;;;;;;6.60;99.90;;;;;;4965496;28;20090;-72
2021/12/25 00:21:35;;;;;;;;;;;6.60;99.90;;;;;;4964015;28;20059;-72
2021/12/25 00:24:03;;;;;;;;;;;6.50;99.90;;;;;;4966766;28;20068;-72
2021/12/25 00:29:49;;;;;;;;;;;6.40;99.90;;;;;;4963325;28;20055;-72
2021/12/25 00:32:42;;;;;;;;;;;6.40;99.90;;;;;;4966743;28;21040;-72
2021/12/25 00:35:09;;;;;;;;;;;6.40;99.90;;;;;;4966056;28;20132;-72
2021/12/25 00:37:37;;;;;;;;;;;6.40;99.90;;;;;;4965305;28;20159;-72
2021/12/25 00:40:04;;;;;;;;;;;6.40;99.90;;;;;;4965553;28;20179;-72
2021/12/25 00:42:31;;;;;;;;;;;6.30;99.90;;;;;;4966609;28;20082;-72
2021/12/25 00:44:58;;;;;;;;;;;6.30;99.90;;;;;;4964349;28;20156;-72
2021/12/25 00:47:27;;;;;;;;;;;6.30;99.90;;;;;;4965781;28;20100;-72
2021/12/25 00:49:56;;;;;;;;;;;6.20;99.90;;;;;;4964804;28;20203;-73
2021/12/25 00:52:23;;;;;;;;;;;6.20;99.90;;;;;;4965727;28;20104;-72
2021/12/25 00:54:50;;;;;;;;;;;6.20;99.90;;;;;;4966028;28;20058;-72
2021/12/25 00:57:17;;;;;;;;;;;6.20;99.90;;;;;;4965518;28;20088;-72
2021/12/25 00:59:45;;;;;;;;;;;6.20;99.90;;;;;;4965700;28;20098;-72
2021/12/25 01:02:12;;;;;;;;;;;6.10;99.90;;;;;;4965036;28;20154;-72
2021/12/25 01:04:41;;;;;;;;;;;6.10;99.90;;;;;;4965988;28;20074;-73
2021/12/25 01:07:08;;;;;;;;;;;6.10;99.90;;;;;;4966245;28;20061;-72
2021/12/25 01:09:35;;;;;;;;;;;6.10;99.90;;;;;;4965940;28;20057;-72
2021/12/25 01:12:05;;;;;;;;;;;6.10;99.90;;;;;;4965696;28;20273;-72
2021/12/25 01:14:36;;;;;;;;;;;6.10;99.90;;;;;;4966890;28;20052;-72
2021/12/25 01:17:57;;;;;;;;;;;6.10;99.90;;;;;;4971601;28;20069;-72
2021/12/25 01:20:47;;;;;;;;;;;6.00;99.90;;;;;;4993303;23;20074;-72
2021/12/25 01:23:52;;;;;;;;;;;6.00;99.90;;;;;;5006178;28;20067;-73
2021/12/25 01:29:24;;;;;;;;;;;6.00;99.90;;;;;;4909099;28;20057;-71
2021/12/25 01:32:12;;;;;;;;;;;5.90;99.90;;;;;;4982867;28;20188;-71
2021/12/25 01:35:01;;;;;;;;;;;5.90;99.90;;;;;;4982946;28;20052;-72
2021/12/25 01:38:02;;;;;;;;;;;5.90;99.90;;;;;;4975830;28;20464;-69
2021/12/25 01:40:59;;;;;;;;;;;5.90;99.90;;;;;;4989308;28;20067;-71
2021/12/25 01:49:42;;;;;;;;;;;5.90;99.90;;;;;;4956050;28;20149;-71
2021/12/25 01:52:10;;;;;;;;;;;5.90;99.90;;;;;;4985153;28;21169;-72
2021/12/25 01:54:38;;;;;;;;;;;5.90;99.90;;;;;;4985465;28;21158;-72
2021/12/25 01:57:05;;;;;;;;;;;5.90;99.90;;;;;;4984693;28;21039;-72
2021/12/25 01:59:33;;;;;;;;;;;5.90;99.90;;;;;;4985075;28;20250;-72
2021/12/25 02:02:00;;;;;;;;;;;5.90;99.90;;;;;;4984926;28;20075;-72
2021/12/25 02:04:27;;;;;;;;;;;5.80;99.90;;;;;;4986342;28;20060;-72
2021/12/25 02:06:54;;;;;;;;;;;5.80;99.90;;;;;;4985560;28;21145;-72
2021/12/25 02:09:21;;;;;;;;;;;5.80;99.90;;;;;;4989295;28;20076;-70
2021/12/25 02:11:51;;;;;;;;;;;5.70;99.90;;;;;;5017169;28;20237;-72
2021/12/25 02:14:18;;;;;;;;;;;5.70;99.90;;;;;;5004317;28;20052;-72
2021/12/25 02:16:54;;;;;;;;;;;5.70;99.90;;;;;;5003676;28;20051;-71
2021/12/25 02:19:36;;;;;;;;;;;5.60;99.90;;;;;;5005084;28;20263;-71
2021/12/25 02:22:08;;;;;;;;;;;5.60;99.90;;;;;;5004601;28;20083;-71
2021/12/25 02:24:37;;;;;;;;;;;5.60;99.90;;;;;;5005322;28;20058;-72
2021/12/25 02:27:05;;;;;;;;;;;5.60;99.90;;;;;;5004394;28;20060;-72
2021/12/25 02:29:32;;;;;;;;;;;5.60;99.90;;;;;;5004018;28;20066;-73
2021/12/25 02:32:00;;;;;;;;;;;5.50;99.90;;;;;;5004781;28;20060;-72
2021/12/25 02:34:29;;;;;;;;;;;5.50;99.90;;;;;;5004788;28;20126;-71
2021/12/25 02:36:56;;;;;;;;;;;5.50;99.90;;;;;;5004229;28;20067;-72
2021/12/25 02:39:26;;;;;;;;;;;5.50;99.90;;;;;;5004629;28;20078;-71
2021/12/25 02:41:53;;;;;;;;;;;5.50;99.90;;;;;;5004327;28;21229;-72
2021/12/25 02:44:20;;;;;;;;;;;5.50;99.90;;;;;;5004792;28;20152;-72
2021/12/25 02:46:54;;;;;;;;;;;5.50;99.90;;;;;;5004523;28;20060;-72
2021/12/25 02:49:21;;;;;;;;;;;5.50;99.90;;;;;;5003935;28;20058;-71
2021/12/25 02:51:49;;;;;;;;;;;5.40;99.90;;;;;;5003552;28;20075;-71
2021/12/25 02:54:17;;;;;;;;;;;5.40;99.90;;;;;;5004245;28;20059;-72
2021/12/25 02:56:46;;;;;;;;;;;5.40;99.90;;;;;;5003020;28;20067;-73
2021/12/25 02:59:15;;;;;;;;;;;5.40;99.90;;;;;;5003943;28;20060;-72
2021/12/25 03:01:42;;;;;;;;;;;5.40;99.90;;;;;;5004310;28;20078;-72
2021/12/25 03:04:09;;;;;;;;;;;5.40;99.90;;;;;;5004325;28;20071;-71
2021/12/25 03:06:37;;;;;;;;;;;5.40;99.90;;;;;;5003995;28;20149;-72
2021/12/25 03:09:04;;;;;;;;;;;5.30;99.90;;;;;;5003102;28;21055;-72
2021/12/25 03:11:31;;;;;;;;;;;5.30;99.90;;;;;;5004679;28;20075;-72
2021/12/25 03:14:12;;;;;;;;;;;5.30;99.90;;;;;;5004590;28;20222;-72
2021/12/25 03:16:39;;;;;;;;;;;5.30;99.90;;;;;;5003552;28;20060;-71
2021/12/25 03:19:13;;;;;;;;;;;5.20;99.90;;;;;;5003555;28;20254;-72
2021/12/25 03:21:40;;;;;;;;;;;5.30;99.90;;;;;;5003668;28;21127;-72
2021/12/25 03:24:07;;;;;;;;;;;5.20;99.90;;;;;;5004440;28;20067;-72
2021/12/25 03:26:34;;;;;;;;;;;5.20;99.90;;;;;;5003361;28;20153;-71
2021/12/25 03:29:05;;;;;;;;;;;5.20;99.90;;;;;;5003641;28;20057;-72
2021/12/25 03:31:32;;;;;;;;;;;5.20;99.90;;;;;;5003905;28;20060;-71
2021/12/25 03:33:59;;;;;;;;;;;5.20;99.90;;;;;;5003309;28;20174;-72
2021/12/25 03:36:27;;;;;;;;;;;5.20;99.90;;;;;;5003452;28;20092;-71
2021/12/25 03:38:54;;;;;;;;;;;5.10;99.90;;;;;;5003080;28;20078;-72
2021/12/25 03:41:21;;;;;;;;;;;5.20;99.90;;;;;;5004149;28;20082;-72
2021/12/25 03:43:49;;;;;;;;;;;5.10;99.90;;;;;;5003884;28;21122;-71
2021/12/25 03:46:19;;;;;;;;;;;5.10;99.90;;;;;;5003010;28;21212;-72
2021/12/25 04:00:15;;;;;;;;;;;5.00;99.90;;;;;;4941034;28;20056;-72
2021/12/25 04:02:54;;;;;;;;;;;5.00;99.90;;;;;;4941945;28;20388;-72
2021/12/25 04:05:30;;;;;;;;;;;4.90;99.90;;;;;;4967122;28;20067;-73
2021/12/25 04:08:03;;;;;;;;;;;4.90;99.90;;;;;;5003120;28;21200;-71
2021/12/25 04:10:33;;;;;;;;;;;4.90;99.90;;;;;;5003336;28;20284;-71
2021/12/25 04:13:01;;;;;;;;;;;4.90;99.90;;;;;;5001739;28;20065;-71
2021/12/25 04:15:28;;;;;;;;;;;4.90;99.90;;;;;;4993710;28;20195;-72
2021/12/25 04:17:57;;;;;;;;;;;4.80;99.90;;;;;;5002638;28;20060;-72
2021/12/25 04:20:24;;;;;;;;;;;4.80;99.90;;;;;;5002547;28;20088;-72
2021/12/25 04:22:57;;;;;;;;;;;4.80;99.90;;;;;;5002771;28;20246;-73
2021/12/25 04:25:27;;;;;;;;;;;4.70;99.90;;;;;;5002807;28;20058;-69
2021/12/25 04:27:57;;;;;;;;;;;4.70;99.90;;;;;;5002872;28;20051;-71
2021/12/25 04:30:33;;;;;;;;;;;4.60;99.90;;;;;;5002640;28;21118;-71
2021/12/25 04:50:01;;;;;;;;;;;4.40;99.90;;;;;;5002539;28;20053;-72
2021/12/25 05:04:09;;;;;;;;;;;4.20;99.90;;;;;;5005593;28;20039;-71
2021/12/25 05:06:49;;;;;;;;;;;4.20;99.90;;;;;;5002756;28;20201;-71
2021/12/25 05:09:16;;;;;;;;;;;4.10;99.90;;;;;;5002694;28;20068;-71
2021/12/25 05:11:44;;;;;;;;;;;4.10;99.90;;;;;;5002981;28;20094;-72
2021/12/25 05:14:11;;;;;;;;;;;4.10;99.90;;;;;;5004273;28;20055;-71
2021/12/25 05:16:44;;;;;;;;;;;4.10;99.90;;;;;;5005659;28;20083;-71
2021/12/25 05:19:11;;;;;;;;;;;4.00;99.90;;;;;;5006172;28;20076;-72
2021/12/25 05:21:38;;;;;;;;;;;4.10;99.90;;;;;;5005390;28;20149;-71
2021/12/25 05:24:07;;;;;;;;;;;4.10;99.90;;;;;;5007393;28;21212;-71
2021/12/25 05:26:41;;;;;;;;;;;4.00;99.90;;;;;;5006355;28;20223;-72
2021/12/25 05:29:08;;;;;;;;;;;4.00;99.90;;;;;;5005543;28;20083;-72
2021/12/25 05:31:37;;;;;;;;;;;4.00;99.90;;;;;;5006325;28;20069;-71
2021/12/25 05:34:27;;;;;;;;;;;4.00;99.90;;;;;;5010710;28;20158;-71
2021/12/25 05:36:58;;;;;;;;;;;3.90;99.90;;;;;;5005468;28;21042;-71
2021/12/25 05:39:51;;;;;;;;;;;3.90;99.90;;;;;;5007837;28;20099;-70
2021/12/25 05:42:22;;;;;;;;;;;3.90;99.90;;;;;;5006456;28;20068;-71
2021/12/25 05:44:51;;;;;;;;;;;3.80;99.90;;;;;;5006149;28;20563;-72
2021/12/25 05:47:34;;;;;;;;;;;3.80;99.90;;;;;;5005410;28;20140;-72
2021/12/25 05:50:33;;;;;;;;;;;3.70;99.90;;;;;;4998261;28;20153;-71
2021/12/25 05:53:26;;;;;;;;;;;3.70;99.90;;;;;;5006018;28;20154;-71
2021/12/25 05:56:07;;;;;;;;;;;3.70;99.90;;;;;;5007970;28;21133;-70
2021/12/25 05:58:46;;;;;;;;;;;3.70;99.90;;;;;;5008467;28;20271;-71
2021/12/25 06:01:23;;;;;;;;;;;3.70;99.90;;;;;;5001993;28;20287;-72
2021/12/25 06:03:51;;;;;;;;;;;3.60;99.90;;;;;;4994524;28;20171;-70
2021/12/25 06:06:18;;;;;;;;;;;3.60;99.90;;;;;;4995101;28;20184;-72
2021/12/25 06:08:46;;;;;;;;;;;3.60;99.90;;;;;;4984670;28;20066;-72
2021/12/25 06:11:16;;;;;;;;;;;3.50;99.90;;;;;;4992676;28;21161;-72
2021/12/25 06:13:55;;;;;;;;;;;3.50;99.90;;;;;;5039359;28;20060;-72
2021/12/25 06:16:23;;;;;;;;;;;3.40;99.90;;;;;;5038138;28;20066;-73
2021/12/25 06:19:05;;;;;;;;;;;3.40;99.90;;;;;;5036180;28;20076;-72
2021/12/25 06:21:38;;;;;;;;;;;3.40;99.90;;;;;;4985616;28;20152;-72
2021/12/25 06:24:35;;;;;;;;;;;3.40;99.90;;;;;;4985258;28;20060;-71
2021/12/25 06:27:18;;;;;;;;;;;3.30;99.90;;;;;;4984526;28;20085;-72
2021/12/25 06:30:08;;;;;;;;;;;3.30;99.90;;;;;;4984828;28;20068;-71
2021/12/25 06:33:01;;;;;;;;;;;3.30;99.90;;;;;;4962492;28;20171;-71
2021/12/25 06:35:47;;;;;;;;;;;3.30;99.90;;;;;;4989132;28;20067;-70
2021/12/25 06:38:20;;;;;;;;;;;3.20;99.90;;;;;;5004167;28;20091;-71
2021/12/25 06:41:10;;;;;;;;;;;3.20;99.90;;;;;;5008480;28;20091;-71
2021/12/25 06:43:40;;;;;;;;;;;3.20;99.90;;;;;;5039602;28;20051;-72
2021/12/25 06:46:08;;;;;;;;;;;3.10;99.90;;;;;;5005537;28;20255;-71
2021/12/25 06:48:36;;;;;;;;;;;3.10;99.90;;;;;;5037279;28;20302;-72
2021/12/25 06:51:13;;;;;;;;;;;3.10;99.90;;;;;;5008323;28;21318;-72
2021/12/25 06:53:53;;;;;;;;;;;3.10;99.90;;;;;;5037509;28;20060;-70
2021/12/25 06:56:32;;;;;;;;;;;3.10;99.90;;;;;;5037207;28;20067;-72
2021/12/25 06:59:06;;;;;;;;;;;3.00;99.90;;;;;;5036510;28;20270;-71
2021/12/25 07:01:38;;;;;;;;;;;3.00;99.90;;;;;;5037317;28;21168;-71
2021/12/25 07:04:08;;;;;;;;;;;2.90;99.90;;;;;;5004334;28;21146;-71
2021/12/25 07:06:54;;;;;;;;;;;2.90;99.90;;;;;;5007588;28;20068;-72
2021/12/25 07:09:24;;;;;;;;;;;2.90;99.90;;;;;;5006640;28;20075;-72
2021/12/25 07:12:19;;;;;;;;;;;2.90;99.90;;;;;;5022881;28;20052;-72
2021/12/25 07:15:10;;;;;;;;;;;2.90;99.90;;;;;;5008323;28;20067;-72
2021/12/25 07:17:52;;;;;;;;;;;2.90;99.90;;;;;;5005138;28;20108;-74
2021/12/25 07:20:38;;;;;;;;;;;2.90;99.90;;;;;;5008538;28;20141;-73
2021/12/25 07:23:15;;;;;;;;;;;2.90;99.90;;;;;;5005282;28;21250;-73
2021/12/25 07:26:00;;;;;;;;;;;2.90;99.90;;;;;;5002553;28;20075;-72
2021/12/25 07:28:42;;;;;;;;;;;2.90;99.90;;;;;;5018098;28;20091;-70
2021/12/25 07:31:11;;;;;;;;;;;2.80;99.90;;;;;;5018563;28;20226;-72
2021/12/25 07:33:40;;;;;;;;;;;2.80;99.90;;;;;;5012554;28;20076;-73
2021/12/25 07:36:08;;;;;;;;;;;2.80;99.90;;;;;;5012150;28;20206;-74
2021/12/25 07:38:35;;;;;;;;;;;2.80;99.90;;;;;;5019118;28;20170;-73
2021/12/25 07:41:02;;;;;;;;;;;2.70;99.90;;;;;;5020307;28;20177;-72
2021/12/25 07:43:29;;;;;;;;;;;2.70;99.90;;;;;;5013513;28;20068;-72
2021/12/25 07:46:02;;;;;;;;;;;2.70;99.90;;;;;;5002827;28;20170;-73
2021/12/25 07:48:33;;;;;;;;;;;2.70;99.90;;;;;;5003902;28;20051;-73
2021/12/25 07:51:02;;;;;;;;;;;2.60;99.90;;;;;;5003709;28;20140;-71
2021/12/25 07:53:30;;;;;;;;;;;2.60;99.90;;;;;;5003735;28;20415;-70
2021/12/25 07:55:57;;;;;;;;;;;2.60;99.90;;;;;;5003208;28;20074;-71
2021/12/25 07:58:24;;;;;;;;;;;2.50;99.90;;;;;;5004496;28;20060;-71
2021/12/25 08:00:51;;;;;;;;;;;2.60;99.90;;;;;;5004806;28;20067;-72
2021/12/25 08:03:18;;;;;;;;;;;2.60;99.90;;;;;;5003200;28;21115;-74
2021/12/25 08:05:47;;;;;;;;;;;2.60;99.90;;;;;;5002841;28;21293;-72
2021/12/25 08:08:14;;;;;;;;;;;2.50;99.90;;;;;;5002953;28;21134;-72
2021/12/25 08:10:42;;;;;;;;;;;2.50;99.90;;;;;;4998393;28;20083;-72
2021/12/25 08:13:10;;;;;;;;;;;2.50;99.90;;;;;;4983965;28;20052;-72
2021/12/25 08:15:37;;;;;;;;;;;2.50;99.90;;;;;;4984257;28;20183;-72
2021/12/25 08:18:04;;;;;;;;;;;2.60;99.90;;;;;;4983608;28;20111;-71
2021/12/25 08:20:32;;;;;;;;;;;2.50;99.90;;;;;;4987315;28;20057;-70
2021/12/25 08:23:20;;;;;;;;;;;2.50;99.90;;;;;;4987678;28;21110;-72
2021/12/25 08:26:06;;;;;;;;;;;2.60;99.90;;;;;;4986773;28;20285;-71
2021/12/25 08:28:46;;;;;;;;;;;2.50;99.90;;;;;;4986452;28;20067;-72
2021/12/25 08:31:31;;;;;;;;;;;2.50;99.90;;;;;;4987488;28;20211;-71
2021/12/25 08:34:17;;;;;;;;;;;2.50;99.90;;;;;;4987632;28;20059;-71
2021/12/25 08:37:04;;;;;;;;;;;2.40;99.90;;;;;;4987334;28;20058;-72
2021/12/25 08:39:33;;;;;;;;;;;2.40;99.90;;;;;;4983461;28;20203;-71
2021/12/25 08:42:03;;;;;;;;;;;2.50;99.90;;;;;;4983868;28;20162;-72
2021/12/25 08:44:34;;;;;;;;;;;2.50;99.90;;;;;;4983808;28;20060;-70
2021/12/25 08:47:04;;;;;;;;;;;2.50;99.90;;;;;;4983527;28;20078;-72
2021/12/25 08:49:32;;;;;;;;;;;2.50;99.90;;;;;;4986380;28;20196;-72
2021/12/25 08:52:00;;;;;;;;;;;2.50;99.90;;;;;;4988112;28;20060;-71
2021/12/25 08:54:28;;;;;;;;;;;2.40;99.90;;;;;;4988027;28;20068;-73
2021/12/25 08:56:57;;;;;;;;;;;2.50;99.90;;;;;;4987004;28;20091;-72
2021/12/25 08:59:24;;;;;;;;;;;2.50;99.90;;;;;;4986333;28;20060;-73
2021/12/25 09:01:51;;;;;;;;;;;2.50;99.90;;;;;;4986696;28;20060;-72
2021/12/25 09:04:19;;;;;;;;;;;2.50;99.90;;;;;;4987182;28;20052;-72
2021/12/25 09:06:46;;;;;;;;;;;2.50;99.90;;;;;;4986802;28;20052;-71
2021/12/25 09:09:13;;;;;;;;;;;2.50;99.90;;;;;;4986492;28;20064;-72
2021/12/25 09:11:41;;;;;;;;;;;2.50;99.90;;;;;;4999437;28;21141;-72
2021/12/25 09:14:10;;;;;;;;;;;2.50;99.90;;;;;;5022771;28;20060;-72
2021/12/25 09:16:37;;;;;;;;;;;2.50;99.90;;;;;;5023381;28;20068;-72
2021/12/25 09:19:04;;;;;;;;;;;2.50;99.90;;;;;;5022919;28;21159;-72
2021/12/25 09:21:33;;;;;;;;;;;2.50;99.90;;;;;;5021595;28;21091;-72
2021/12/25 09:24:00;;;;;;;;;;;2.50;99.90;;;;;;5023370;28;21050;-73
2021/12/25 09:26:27;;;;;;;;;;;2.50;99.90;;;;;;5023271;28;20069;-72
2021/12/25 09:28:55;;;;;;;;;;;2.50;99.90;;;;;;5022012;28;21167;-72
2021/12/25 09:31:23;;;;;;;;;;;2.50;99.90;;;;;;5023228;28;20099;-72
2021/12/25 09:33:52;;;;;;;;;;;2.50;99.90;;;;;;5022811;28;21158;-72
2021/12/25 09:36:19;;;;;;;;;;;2.50;99.90;;;;;;5022811;28;20420;-72
2021/12/25 09:38:46;;;;;;;;;;;2.50;99.90;;;;;;5022787;28;21031;-71
2021/12/25 09:41:16;;;;;;;;;;;2.50;99.90;;;;;;5022242;28;20140;-71
2021/12/25 09:43:45;;;;;;;;;;;2.50;99.90;;;;;;5023788;28;20141;-73
2021/12/25 09:46:12;;;;;;;;;;;2.50;99.90;;;;;;5023197;28;20074;-73
2021/12/25 09:48:40;;;;;;;;;;;2.50;99.90;;;;;;5022894;28;21329;-73
2021/12/25 09:51:08;;;;;;;;;;;2.60;99.90;;;;;;5022177;28;20173;-70
2021/12/25 09:53:35;;;;;;;;;;;2.60;99.90;;;;;;5022966;28;20143;-70
2021/12/25 09:56:03;;;;;;;;;;;2.70;99.90;;;;;;5022222;28;20067;-71
2021/12/25 09:58:30;;;;;;;;;;;2.70;99.90;;;;;;5022691;28;21149;-72
2021/12/25 10:00:58;;;;;;;;;;;2.70;99.90;;;;;;5022173;28;21053;-71
2021/12/25 10:03:26;;;;;;;;;;;2.80;99.90;;;;;;5022439;28;20163;-72
2021/12/25 10:05:54;;;;;;;;;;;2.80;99.90;;;;;;5005370;28;21166;-71
2021/12/25 10:08:22;;;;;;;;;;;2.80;99.90;;;;;;5021603;28;20068;-72
2021/12/25 10:10:51;;;;;;;;;;;2.90;99.90;;;;;;5020104;28;20074;-72
2021/12/25 10:13:22;;;;;;;;;;;2.90;99.90;;;;;;5005640;28;21264;-72
2021/12/25 10:15:50;;;;;;;;;;;2.90;99.90;;;;;;5022302;28;21369;-72
2021/12/25 10:18:25;;;;;;;;;;;2.90;99.90;;;;;;4985804;28;20066;-72
2021/12/25 10:20:52;;;;;;;;;;;2.80;99.90;;;;;;4985168;28;21319;-70
2021/12/25 10:23:26;;;;;;;;;;;2.80;99.90;;;;;;4985506;28;21027;-72
2021/12/25 10:25:55;;;;;;;;;;;2.80;99.90;;;;;;4985434;28;20082;-73
2021/12/25 10:28:23;;;;;;;;;;;2.80;99.90;;;;;;4984347;28;21046;-73
2021/12/25 10:30:54;;;;;;;;;;;2.80;99.90;;;;;;4985457;28;20069;-70
2021/12/25 10:33:25;;;;;;;;;;;2.90;99.90;;;;;;4986023;28;20067;-71
2021/12/25 10:35:53;;;;;;;;;;;2.80;99.90;;;;;;4985217;28;20060;-71
2021/12/25 10:38:24;;;;;;;;;;;2.80;99.90;;;;;;4984395;28;20106;-71
2021/12/25 10:40:51;;;;;;;;;;;2.80;99.90;;;;;;4985282;28;21170;-70
2021/12/25 10:43:22;;;;;;;;;;;2.90;99.90;;;;;;4985108;28;20069;-71
2021/12/25 10:45:59;;;;;;;;;;;2.80;99.90;;;;;;4984965;28;20171;-73
2021/12/25 10:48:27;;;;;;;;;;;2.80;99.90;;;;;;4985042;28;20061;-73
2021/12/25 10:50:54;;;;;;;;;;;2.80;99.90;;;;;;4985206;28;20198;-73
2021/12/25 10:53:24;;;;;;;;;;;2.90;99.90;;;;;;4984738;28;20069;-72
2021/12/25 10:55:52;;;;;;;;;;;2.90;99.90;;;;;;4984879;28;20075;-73
2021/12/25 10:58:20;;;;;;;;;;;2.90;99.90;;;;;;4984974;28;20093;-73
2021/12/25 11:00:50;;;;;;;;;;;2.90;99.90;;;;;;4984777;28;20074;-72
2021/12/25 11:03:17;;;;;;;;;;;3.00;99.90;;;;;;4984442;28;20069;-73
2021/12/25 11:05:45;;;;;;;;;;;3.00;99.90;;;;;;4984544;28;20068;-73
2021/12/25 11:08:13;;;;;;;;;;;3.00;99.90;;;;;;4984342;28;20203;-73
2021/12/25 11:10:46;;;;;;;;;;;2.90;99.90;;;;;;4988835;28;20092;-73
2021/12/25 11:13:17;;;;;;;;;;;2.90;99.90;;;;;;5019969;28;20060;-73
2021/12/25 11:15:45;;;;;;;;;;;2.80;99.90;;;;;;5020710;28;21008;-73
2021/12/25 11:18:14;;;;;;;;;;;2.80;99.90;;;;;;5020237;28;21016;-73
2021/12/25 11:20:42;;;;;;;;;;;2.80;99.90;;;;;;5003030;28;20135;-72
2021/12/25 11:23:10;;;;;;;;;;;2.90;99.90;;;;;;5020501;28;20141;-73
2021/12/25 11:25:38;;;;;;;;;;;2.90;99.90;;;;;;5021051;28;20060;-73
2021/12/25 11:28:09;;;;;;;;;;;3.00;99.90;;;;;;5019943;28;20199;-74
2021/12/25 11:30:37;;;;;;;;;;;3.00;99.90;;;;;;5004268;28;21069;-72
2021/12/25 11:33:04;;;;;;;;;;;3.00;99.90;;;;;;5020274;28;20088;-73
2021/12/25 11:35:34;;;;;;;;;;;2.90;99.90;;;;;;5020453;28;20076;-71
2021/12/25 11:38:02;;;;;;;;;;;3.00;99.90;;;;;;5020225;28;20186;-72
2021/12/25 11:40:30;;;;;;;;;;;2.90;99.90;;;;;;5019896;28;21030;-73
2021/12/25 11:43:00;;;;;;;;;;;2.90;99.90;;;;;;5021138;28;21203;-73
2021/12/25 11:45:32;;;;;;;;;;;2.90;99.90;;;;;;5019504;28;21148;-71
2021/12/25 11:48:00;;;;;;;;;;;3.00;99.90;;;;;;5020672;28;20068;-71
2021/12/25 11:50:39;;;;;;;;;;;3.00;99.90;;;;;;5019994;28;20060;-71
2021/12/25 11:53:11;;;;;;;;;;;3.10;99.90;;;;;;5020577;28;20067;-71
2021/12/25 11:58:39;;;;;;;;;;;3.00;99.90;;;;;;4971662;28;21132;-70
2021/12/25 12:01:25;;;;;;;;;;;3.00;99.90;;;;;;5020125;28;20084;-70
2021/12/25 12:03:56;;;;;;;;;;;3.00;99.90;;;;;;5020371;28;20075;-72
2021/12/25 12:06:42;;;;;;;;;;;3.00;99.90;;;;;;5019870;28;21235;-71
2021/12/25 12:09:11;;;;;;;;;;;3.00;99.90;;;;;;5003853;28;20069;-71
2021/12/25 12:11:40;;;;;;;;;;;3.10;99.90;;;;;;5007245;28;20205;-71
2021/12/25 12:14:14;;;;;;;;;;;3.10;99.90;;;;;;5006517;28;20076;-71
2021/12/25 12:16:52;;;;;;;;;;;3.10;99.90;;;;;;5005948;28;20174;-71
2021/12/25 12:19:43;;;;;;;;;;;3.00;99.90;;;;;;5005424;28;20060;-71
2021/12/25 12:22:35;;;;;;;;;;;3.00;99.90;;;;;;5002974;28;20066;-71
2021/12/25 12:25:19;;;;;;;;;;;3.00;99.90;;;;;;5002605;28;20058;-72
2021/12/25 12:27:49;;;;;;;;;;;3.10;99.90;;;;;;5003187;28;20218;-71
2021/12/25 12:30:31;;;;;;;;;;;3.10;99.90;;;;;;5019568;28;20080;-71
2021/12/25 12:33:00;;;;;;;;;;;3.00;99.90;;;;;;5002323;28;21125;-71
2021/12/25 12:35:30;;;;;;;;;;;3.10;99.90;;;;;;5019727;28;20051;-72
2021/12/25 12:38:12;;;;;;;;;;;3.00;99.90;;;;;;5019330;28;20060;-71
2021/12/25 12:40:39;;;;;;;;;;;3.00;99.90;;;;;;5001802;28;20157;-71
2021/12/25 12:43:06;;;;;;;;;;;2.80;99.90;;;;;;5019993;28;20069;-70
2021/12/25 12:45:34;;;;;;;;;;;2.80;99.90;;;;;;5019520;28;20060;-70
2021/12/25 12:48:10;;;;;;;;;;;2.80;99.90;;;;;;5018605;28;20150;-71
2021/12/25 12:50:37;;;;;;;;;;;2.80;99.90;;;;;;5019663;28;20083;-70
2021/12/25 12:53:07;;;;;;;;;;;2.70;99.90;;;;;;5019936;28;21128;-71
2021/12/25 12:55:35;;;;;;;;;;;2.70;99.90;;;;;;5019592;28;20153;-71
2021/12/25 12:58:13;;;;;;;;;;;2.60;99.90;;;;;;5018772;28;21142;-71
2021/12/25 13:00:41;;;;;;;;;;;2.60;99.90;;;;;;5019340;28;20159;-71
2021/12/25 13:03:10;;;;;;;;;;;2.60;99.90;;;;;;5019621;28;20218;-71
2021/12/25 13:05:39;;;;;;;;;;;2.60;99.90;;;;;;5019336;28;21059;-72
2021/12/25 13:08:14;;;;;;;;;;;2.60;99.90;;;;;;5019355;28;20059;-71
2021/12/25 13:10:47;;;;;;;;;;;2.60;99.90;;;;;;5017234;28;21141;-71
2021/12/25 13:13:15;;;;;;;;;;;2.70;99.90;;;;;;5035758;28;20060;-71
2021/12/25 13:15:44;;;;;;;;;;;2.70;99.90;;;;;;5035632;28;20082;-71
2021/12/25 13:18:13;;;;;;;;;;;2.70;99.90;;;;;;5001783;28;20067;-71
2021/12/25 13:20:42;;;;;;;;;;;2.70;99.90;;;;;;4995082;22;1837733;-70
2021/12/25 13:23:11;;;;;;;;;;;2.70;99.90;;;;;;5018590;28;20069;-70
2021/12/25 13:25:44;;;;;;;;;;;2.60;99.90;;;;;;5002128;28;21158;-70
2021/12/25 13:28:11;;;;;;;;;;;2.60;99.90;;;;;;5002980;28;21215;-70
2021/12/25 13:30:43;;;;;;;;;;;2.50;99.90;;;;;;5002266;28;20135;-70
2021/12/25 13:33:12;;;;;;;;;;;2.50;99.90;;;;;;5001781;28;20058;-70
2021/12/25 13:35:41;;;;;;;;;;;2.40;99.90;;;;;;5004516;28;20077;-70
2021/12/25 13:38:08;;;;;;;;;;;2.40;99.90;;;;;;5005453;28;20073;-70
2021/12/25 13:40:37;;;;;;;;;;;2.40;99.90;;;;;;5005700;28;20085;-70
2021/12/25 13:43:05;;;;;;;;;;;2.40;99.90;;;;;;5006111;28;20057;-70
2021/12/25 13:45:32;;;;;;;;;;;2.40;99.90;;;;;;5005543;28;21214;-70
2021/12/25 13:47:59;;;;;;;;;;;2.40;99.90;;;;;;5004780;28;21084;-70
2021/12/25 13:50:26;;;;;;;;;;;2.40;99.90;;;;;;5006069;28;20060;-70
2021/12/25 13:52:59;;;;;;;;;;;2.40;99.90;;;;;;5006267;28;20155;-70
2021/12/25 13:55:27;;;;;;;;;;;2.30;99.90;;;;;;5005671;28;20083;-70
2021/12/25 13:57:56;;;;;;;;;;;2.30;99.90;;;;;;5005066;28;20052;-70
2021/12/25 14:00:24;;;;;;;;;;;2.20;99.90;;;;;;5004607;28;20060;-70
2021/12/25 14:02:52;;;;;;;;;;;2.20;99.90;;;;;;5005853;28;20060;-70
2021/12/25 14:05:20;;;;;;;;;;;2.20;99.90;;;;;;5005575;28;20068;-69
2021/12/25 14:07:48;;;;;;;;;;;2.10;99.90;;;;;;5005396;28;20138;-70
2021/12/25 14:10:18;;;;;;;;;;;2.10;99.90;;;;;;5006328;28;20067;-70
2021/12/25 14:12:46;;;;;;;;;;;2.10;99.90;;;;;;5025522;28;20206;-70
2021/12/25 14:15:15;;;;;;;;;;;2.10;99.90;;;;;;5025144;28;20075;-70
2021/12/25 14:17:43;;;;;;;;;;;2.10;99.90;;;;;;5025301;28;20200;-70
2021/12/25 14:20:12;;;;;;;;;;;2.00;99.90;;;;;;5025209;28;20092;-71
2021/12/25 14:22:40;;;;;;;;;;;2.10;99.90;;;;;;5024998;28;21079;-70
2021/12/25 14:25:07;;;;;;;;;;;2.10;99.90;;;;;;5025105;28;20051;-70
2021/12/25 14:27:36;;;;;;;;;;;2.20;99.90;;;;;;5023788;28;20153;-70
2021/12/25 14:30:08;;;;;;;;;;;2.20;99.90;;;;;;5024736;28;20071;-70
2021/12/25 14:32:35;;;;;;;;;;;2.30;99.90;;;;;;5024709;28;20068;-70
2021/12/25 14:35:13;;;;;;;;;;;2.30;99.90;;;;;;5024665;28;20060;-70
2021/12/25 14:37:40;;;;;;;;;;;2.30;99.90;;;;;;5023934;28;20141;-70
2021/12/25 14:40:09;;;;;;;;;;;2.40;99.90;;;;;;5023777;28;20060;-69
2021/12/25 14:42:39;;;;;;;;;;;2.30;99.90;;;;;;5024610;28;20205;-70
2021/12/25 14:45:07;;;;;;;;;;;2.30;99.90;;;;;;5024516;28;20149;-70
2021/12/25 14:47:34;;;;;;;;;;;2.30;99.90;;;;;;5023610;28;20177;-70
2021/12/25 14:50:01;;;;;;;;;;;2.30;99.90;;;;;;5024136;28;20065;-71
2021/12/25 14:52:28;;;;;;;;;;;2.30;99.90;;;;;;5023396;28;20059;-70
2021/12/25 14:54:56;;;;;;;;;;;2.30;99.90;;;;;;5024231;28;21180;-70
2021/12/25 14:57:24;;;;;;;;;;;2.30;99.90;;;;;;5023722;28;20051;-70
2021/12/25 14:59:53;;;;;;;;;;;2.30;99.90;;;;;;5023931;28;20068;-70
2021/12/25 15:02:20;;;;;;;;;;;2.30;99.90;;;;;;5024049;28;20342;-69
2021/12/25 15:04:49;;;;;;;;;;;2.40;99.90;;;;;;5024376;28;20161;-70
2021/12/25 15:07:17;;;;;;;;;;;2.40;99.90;;;;;;5023574;28;20060;-70
2021/12/25 15:09:44;;;;;;;;;;;2.40;99.90;;;;;;5023825;28;20060;-70
2021/12/25 15:12:13;;;;;;;;;;;2.40;99.90;;;;;;5006967;28;20150;-70
2021/12/25 15:14:41;;;;;;;;;;;2.30;99.90;;;;;;5004234;28;20059;-70
2021/12/25 15:17:10;;;;;;;;;;;2.30;99.90;;;;;;5005194;28;21218;-70
2021/12/25 15:19:39;;;;;;;;;;;2.30;99.90;;;;;;5003654;28;20060;-71
2021/12/25 15:22:08;;;;;;;;;;;2.30;99.90;;;;;;5003130;28;21128;-70
2021/12/25 15:24:35;;;;;;;;;;;2.30;99.90;;;;;;5004014;28;20061;-70
2021/12/25 15:27:03;;;;;;;;;;;2.30;99.90;;;;;;5003796;28;20162;-71
2021/12/25 15:29:31;;;;;;;;;;;2.30;99.90;;;;;;5004456;28;20076;-70
2021/12/25 15:32:00;;;;;;;;;;;2.30;99.90;;;;;;5004282;28;20052;-70
2021/12/25 15:34:29;;;;;;;;;;;2.30;99.90;;;;;;5004969;28;20977;-71
2021/12/25 15:36:56;;;;;;;;;;;2.30;99.90;;;;;;5003914;28;20177;-70
2021/12/25 15:39:25;;;;;;;;;;;2.30;99.90;;;;;;5003209;28;20067;-70
2021/12/25 15:41:53;;;;;;;;;;;2.30;99.90;;;;;;5003749;28;20088;-70
2021/12/25 15:44:23;;;;;;;;;;;2.30;99.90;;;;;;5003651;28;21146;-71
2021/12/25 15:46:51;;;;;;;;;;;2.20;99.90;;;;;;5003225;28;20117;-70
2021/12/25 15:49:18;;;;;;;;;;;2.20;99.90;;;;;;5003224;28;21067;-71
2021/12/25 15:51:52;;;;;;;;;;;2.20;99.90;;;;;;5004305;28;20060;-70